createdAt,value
2018-12-10T00:00:01.471Z,21.50
2018-12-10T00:02:30.044Z,18.80
2018-12-10T00:04:58.767Z,20.73
2018-12-10T00:07:27.469Z,20.27
2018-12-10T00:09:56.381Z,21.73
2018-12-10T00:12:25.073Z,20.93
2018-12-10T00:14:53.680Z,22.00
2018-12-10T00:17:22.345Z,20.27
2018-12-10T00:19:50.924Z,20.97
2018-12-10T00:22:19.579Z,20.40
2018-12-10T00:24:48.194Z,20.27
2018-12-10T00:27:16.825Z,20.53
2018-12-10T00:29:45.510Z,19.57
2018-12-10T00:32:14.102Z,18.60
2018-12-10T00:34:42.861Z,18.70
2018-12-10T00:37:11.471Z,18.50
2018-12-10T00:39:40.111Z,18.77
2018-12-10T00:42:08.829Z,18.77
2018-12-10T00:44:37.423Z,18.77
2018-12-10T00:47:06.093Z,19.77
2018-12-10T00:49:34.736Z,19.77
2018-12-10T00:52:03.369Z,20.23
2018-12-10T00:54:32.071Z,18.80
2018-12-10T00:57:00.720Z,19.13
2018-12-10T00:59:29.465Z,19.93
2018-12-10T01:01:58.104Z,20.13
2018-12-10T01:04:26.746Z,21.57
2018-12-10T01:06:55.378Z,21.50
2018-12-10T01:09:24.172Z,21.27
2018-12-10T01:11:52.741Z,22.43
2018-12-10T01:14:21.352Z,23.37
2018-12-10T01:16:50.030Z,23.20
2018-12-10T01:19:18.673Z,21.50
2018-12-10T01:21:47.705Z,23.27
2018-12-10T01:24:16.569Z,22.33
2018-12-10T01:26:45.327Z,22.87
2018-12-10T01:29:13.947Z,23.57
2018-12-10T01:31:42.837Z,24.17
2018-12-10T01:34:11.477Z,24.33
2018-12-10T01:36:40.456Z,22.97
2018-12-10T01:39:10.163Z,24.23
2018-12-10T01:41:38.838Z,23.00
2018-12-10T01:44:07.492Z,24.17
2018-12-10T01:46:36.183Z,24.30
2018-12-10T01:49:04.798Z,23.93
2018-12-10T01:51:33.450Z,22.73
2018-12-10T01:54:02.095Z,21.57
2018-12-10T01:56:30.765Z,20.87
2018-12-10T01:58:59.432Z,21.03
2018-12-10T02:01:28.079Z,22.13
2018-12-10T02:03:56.718Z,22.77
2018-12-10T02:06:25.409Z,22.43
2018-12-10T02:08:54.037Z,21.83
2018-12-10T02:11:22.682Z,21.77
2018-12-10T02:13:53.141Z,20.27
2018-12-10T02:16:21.777Z,21.33
2018-12-10T02:18:50.544Z,20.77
2018-12-10T02:21:19.149Z,20.90
2018-12-10T02:23:47.815Z,21.37
2018-12-10T02:26:16.679Z,20.47
2018-12-10T02:28:50.523Z,20.53
2018-12-10T02:31:19.112Z,21.40
2018-12-10T02:33:47.757Z,20.83
2018-12-10T02:36:16.502Z,22.73
2018-12-10T02:38:45.287Z,23.30
2018-12-10T02:41:13.986Z,22.57
2018-12-10T02:43:44.063Z,20.50
2018-12-10T02:46:12.705Z,22.67
2018-12-10T02:48:41.535Z,20.97
2018-12-10T02:51:10.329Z,20.57
2018-12-10T02:53:38.963Z,22.27
2018-12-10T02:56:07.634Z,22.90
2018-12-10T03:01:35.470Z,21.80
2018-12-10T03:04:04.166Z,21.53
2018-12-10T03:06:32.869Z,21.47
2018-12-10T03:09:01.492Z,19.60
2018-12-10T03:11:30.094Z,19.93
2018-12-10T03:13:58.798Z,21.10
2018-12-10T03:16:27.585Z,21.90
2018-12-10T03:18:56.309Z,22.17
2018-12-10T03:21:25.037Z,22.20
2018-12-10T03:23:53.646Z,22.53
2018-12-10T03:26:22.235Z,22.67
2018-12-10T03:28:50.835Z,20.70
2018-12-10T03:31:19.481Z,21.27
2018-12-10T03:33:48.258Z,23.03
2018-12-10T03:36:16.904Z,21.87
2018-12-10T03:38:45.560Z,21.17
2018-12-10T03:41:14.213Z,21.40
2018-12-10T03:43:42.859Z,19.83
2018-12-10T03:46:11.500Z,21.43
2018-12-10T03:48:40.216Z,24.40
2018-12-10T03:51:08.844Z,20.73
2018-12-10T03:53:37.540Z,20.83
2018-12-10T03:56:06.187Z,21.47
2018-12-10T03:58:37.192Z,21.73
2018-12-10T04:01:05.936Z,23.73
2018-12-10T04:03:34.565Z,22.03
2018-12-10T04:06:03.221Z,23.27
2018-12-10T04:08:31.935Z,23.67
2018-12-10T04:11:00.567Z,23.87
2018-12-10T04:13:29.254Z,23.57
2018-12-10T04:15:58.018Z,23.70
2018-12-10T04:18:26.656Z,24.13
2018-12-10T04:20:55.279Z,23.40
2018-12-10T04:23:23.890Z,24.83
2018-12-10T04:25:52.491Z,23.50
2018-12-10T04:28:21.095Z,25.93
2018-12-10T04:30:50.400Z,23.67
2018-12-10T04:33:19.089Z,23.53
2018-12-10T04:35:48.418Z,25.50
2018-12-10T04:38:17.000Z,24.77
2018-12-10T04:40:45.930Z,21.97
2018-12-10T04:43:14.528Z,24.90
2018-12-10T04:45:43.180Z,21.60
2018-12-10T04:48:12.892Z,21.70
2018-12-10T04:50:41.604Z,23.67
2018-12-10T04:53:10.385Z,23.93
2018-12-10T04:55:39.053Z,27.13
2018-12-10T04:58:07.734Z,26.30
2018-12-10T05:00:36.502Z,23.23
2018-12-10T05:03:05.854Z,25.87
2018-12-10T05:05:34.519Z,24.73
2018-12-10T05:08:03.272Z,23.80
2018-12-10T05:10:31.879Z,24.07
2018-12-10T05:13:01.066Z,24.17
2018-12-10T05:15:29.696Z,24.23
2018-12-10T05:17:59.346Z,24.33
2018-12-10T05:20:28.012Z,25.67
2018-12-10T05:22:56.620Z,26.03
2018-12-10T05:25:25.318Z,25.23
2018-12-10T05:27:53.978Z,24.63
2018-12-10T05:30:22.737Z,24.50
2018-12-10T05:32:51.503Z,24.57
2018-12-10T05:35:20.204Z,23.03
2018-12-10T05:37:49.931Z,24.43
2018-12-10T05:40:18.676Z,23.23
2018-12-10T05:42:48.008Z,24.40
2018-12-10T05:45:17.017Z,25.87
2018-12-10T05:47:45.751Z,26.10
2018-12-10T17:41:17.874Z,10.20
2018-12-10T17:43:46.749Z,9.40
2018-12-10T17:46:15.494Z,8.20
2018-12-10T17:48:45.483Z,9.20
2018-12-10T17:51:15.316Z,7.87
2018-12-10T17:53:46.229Z,9.43
2018-12-10T17:57:45.323Z,9.83
2018-12-10T18:00:14.367Z,9.60
2018-12-10T18:02:43.203Z,8.40
2018-12-10T18:05:11.887Z,6.80
2018-12-10T18:07:40.655Z,6.73
2018-12-10T18:10:09.665Z,7.53
2018-12-10T18:12:38.503Z,7.93
2018-12-10T18:15:07.899Z,7.60
2018-12-10T18:17:36.647Z,8.30
2018-12-10T18:20:08.374Z,8.63
2018-12-10T18:22:37.141Z,7.93
2018-12-10T18:25:06.200Z,5.83
2018-12-10T18:27:34.951Z,7.47
2018-12-10T18:32:38.412Z,8.83
2018-12-10T18:35:08.036Z,7.97
2018-12-10T18:37:36.780Z,8.30
2018-12-10T18:40:09.622Z,8.83
2018-12-10T18:42:38.343Z,8.03
2018-12-10T18:45:10.297Z,8.60
2018-12-10T18:47:39.119Z,7.60
2018-12-10T18:50:08.063Z,7.83
2018-12-10T18:52:36.834Z,8.07
2018-12-10T18:55:06.091Z,8.07
2018-12-10T18:57:34.750Z,8.30
2018-12-10T19:00:10.574Z,9.10
2018-12-10T19:02:40.489Z,8.37
2018-12-10T19:05:10.361Z,9.87
2018-12-10T19:07:39.164Z,7.47
2018-12-10T19:10:09.226Z,7.90
2018-12-10T19:12:38.294Z,8.03
2018-12-10T19:15:09.979Z,7.03
2018-12-10T19:17:38.832Z,7.30
2018-12-10T19:20:13.474Z,6.93
2018-12-10T19:22:38.939Z,4.57
2018-12-10T19:25:07.942Z,8.30
2018-12-10T19:27:36.570Z,6.53
2018-12-10T19:30:11.623Z,4.80
2018-12-10T19:32:40.304Z,6.70
2018-12-10T19:35:09.186Z,6.37
2018-12-10T19:37:37.853Z,4.83
2018-12-10T19:40:08.044Z,5.47
2018-12-10T19:42:36.679Z,6.83
2018-12-10T19:45:06.413Z,6.27
2018-12-10T19:47:35.097Z,6.53
2018-12-10T19:50:04.735Z,7.30
2018-12-10T19:52:33.383Z,6.80
2018-12-10T19:55:02.238Z,5.90
2018-12-10T19:57:30.919Z,8.10
2018-12-10T19:59:59.622Z,7.67
2018-12-10T20:02:28.373Z,6.83
2018-12-10T20:04:57.036Z,6.50
2018-12-10T20:08:03.719Z,7.63
2018-12-10T20:10:32.434Z,6.00
2018-12-10T20:13:01.179Z,7.03
2018-12-10T20:15:29.813Z,6.93
2018-12-10T20:18:01.485Z,8.00
2018-12-10T20:20:30.187Z,6.67
2018-12-10T20:22:58.856Z,4.93
2018-12-10T20:25:27.519Z,5.00
2018-12-10T20:27:56.324Z,5.23
2018-12-10T20:30:25.017Z,4.43
2018-12-10T20:32:53.691Z,4.80
2018-12-10T20:35:22.514Z,3.90
2018-12-10T20:37:51.260Z,5.40
2018-12-10T20:40:19.936Z,5.00
2018-12-10T20:42:48.611Z,4.90
2018-12-10T20:45:18.250Z,4.03
2018-12-10T20:47:46.961Z,4.73
2018-12-10T20:50:15.707Z,5.10
2018-12-10T20:52:44.449Z,4.23
2018-12-10T20:55:13.132Z,4.20
2018-12-10T20:57:41.886Z,4.20
2018-12-10T21:00:11.041Z,4.33
2018-12-10T21:02:39.699Z,4.50
2018-12-10T21:05:08.376Z,3.33
2018-12-10T21:07:37.133Z,4.70
2018-12-10T21:10:06.383Z,4.40
2018-12-10T21:12:35.030Z,4.20
2018-12-10T21:15:04.378Z,4.70
2018-12-10T21:17:33.077Z,4.70
2018-12-10T21:20:01.692Z,4.73
2018-12-10T21:22:30.327Z,3.80
2018-12-10T21:24:58.879Z,3.43
2018-12-10T21:27:27.499Z,3.30
2018-12-10T21:29:56.318Z,3.33
2018-12-10T21:32:24.944Z,3.40
2018-12-10T21:34:53.566Z,2.90
2018-12-10T21:37:22.320Z,3.00
2018-12-10T21:39:51.009Z,3.03
2018-12-10T21:42:19.724Z,3.47
2018-12-10T21:44:48.475Z,3.00
2018-12-10T21:47:17.091Z,2.90
2018-12-10T21:49:45.761Z,3.23
2018-12-10T21:52:14.391Z,3.00
2018-12-10T21:54:43.863Z,3.30
2018-12-10T21:57:12.543Z,3.30
2018-12-10T21:59:41.164Z,3.17
2018-12-10T22:02:09.801Z,4.00
2018-12-10T22:04:38.397Z,4.10
2018-12-10T22:07:07.043Z,3.67
2018-12-10T22:09:35.683Z,3.73
2018-12-10T22:12:04.347Z,3.97
2018-12-10T22:14:32.970Z,4.37
2018-12-10T22:17:01.556Z,4.00
2018-12-10T22:19:30.557Z,3.93
2018-12-10T22:21:59.248Z,3.80
2018-12-10T22:24:27.880Z,3.60
2018-12-10T22:26:56.546Z,2.90
2018-12-10T22:29:25.271Z,2.30
2018-12-10T22:31:53.981Z,3.00
2018-12-10T22:34:22.633Z,2.60
2018-12-10T22:36:51.233Z,3.17
2018-12-10T22:39:19.857Z,3.07
2018-12-10T22:43:17.856Z,2.90
2018-12-10T22:45:46.452Z,3.23
2018-12-10T22:48:15.099Z,2.43
2018-12-10T22:50:43.760Z,2.80
2018-12-10T22:53:12.388Z,3.23
2018-12-10T22:55:41.100Z,1.90
2018-12-10T22:58:09.691Z,2.67
2018-12-10T23:00:45.395Z,2.73
2018-12-10T23:03:14.058Z,2.60
2018-12-10T23:05:43.002Z,2.73
2018-12-10T23:08:11.676Z,3.13
2018-12-10T23:10:40.332Z,2.50
2018-12-10T23:13:08.978Z,2.60
2018-12-10T23:15:37.622Z,2.70
2018-12-10T23:18:06.239Z,2.57
2018-12-10T23:20:34.835Z,2.53
2018-12-10T23:25:55.918Z,2.70
2018-12-10T23:28:24.556Z,2.50
2018-12-10T23:30:53.206Z,2.63
2018-12-10T23:33:22.809Z,2.50
2018-12-10T23:35:51.486Z,2.03
2018-12-10T23:38:20.131Z,1.97
2018-12-10T23:40:48.766Z,3.37
2018-12-10T23:43:23.041Z,3.30
2018-12-10T23:45:51.713Z,2.53
2018-12-10T23:48:20.335Z,2.30
2018-12-10T23:50:49.004Z,2.60
2018-12-10T23:53:17.615Z,2.20
2018-12-10T23:55:46.300Z,2.17
2018-12-10T23:58:14.962Z,3.07
